createdAt,value
2022-07-25T00:01:49.560Z,26.10
2022-07-25T00:04:17.724Z,26.10
2022-07-25T00:06:45.787Z,26.10
2022-07-25T00:09:12.671Z,26.10
2022-07-25T00:11:39.565Z,26.10
2022-07-25T00:14:07.566Z,26.10
2022-07-25T00:16:34.829Z,26.00
2022-07-25T00:19:02.240Z,26.10
2022-07-25T00:21:29.346Z,26.00
2022-07-25T00:23:56.212Z,26.00
2022-07-25T00:26:23.066Z,26.00
2022-07-25T00:28:49.966Z,26.00
2022-07-25T00:31:16.832Z,26.00
2022-07-25T00:33:43.765Z,26.00
2022-07-25T00:36:10.794Z,26.00
2022-07-25T00:38:37.636Z,26.00
2022-07-25T00:41:05.182Z,26.00
2022-07-25T00:43:32.348Z,26.00
2022-07-25T00:45:59.878Z,26.00
2022-07-25T00:48:28.590Z,26.00
2022-07-25T00:50:56.335Z,26.00
2022-07-25T00:53:23.936Z,26.00
2022-07-25T00:55:51.408Z,26.00
2022-07-25T00:58:18.980Z,26.00
2022-07-25T01:00:46.617Z,26.00
2022-07-25T01:03:13.614Z,26.00
2022-07-25T01:05:40.659Z,26.00
2022-07-25T01:08:08.247Z,26.00
2022-07-25T01:10:35.651Z,26.00
2022-07-25T01:13:02.635Z,26.00
2022-07-25T01:15:30.140Z,25.90
2022-07-25T01:17:57.132Z,26.00
2022-07-25T01:20:26.075Z,25.90
2022-07-25T01:22:53.839Z,25.90
2022-07-25T01:25:21.661Z,25.90
2022-07-25T01:27:54.628Z,25.90
2022-07-25T01:30:24.138Z,25.90
2022-07-25T01:32:51.910Z,25.90
2022-07-25T01:35:18.887Z,25.90
2022-07-25T01:37:46.245Z,25.90
2022-07-25T01:40:14.241Z,25.90
2022-07-25T01:42:41.986Z,25.90
2022-07-25T01:45:09.894Z,25.90
2022-07-25T01:47:36.803Z,25.90
2022-07-25T01:50:05.483Z,25.90
2022-07-25T01:52:32.670Z,25.80
2022-07-25T01:54:59.696Z,25.90
2022-07-25T01:57:30.833Z,25.90
2022-07-25T01:59:59.358Z,25.80
2022-07-25T02:02:26.433Z,25.90
2022-07-25T02:04:53.957Z,25.90
2022-07-25T02:07:20.996Z,25.90
2022-07-25T02:09:47.899Z,25.90
2022-07-25T02:12:15.279Z,25.90
2022-07-25T02:14:42.158Z,25.90
2022-07-25T02:17:09.089Z,25.80
2022-07-25T02:19:36.820Z,25.80
2022-07-25T02:22:03.971Z,25.80
2022-07-25T02:24:31.016Z,25.80
2022-07-25T02:26:58.144Z,25.80
2022-07-25T02:29:25.482Z,25.80
2022-07-25T02:31:53.143Z,25.70
2022-07-25T02:34:20.053Z,25.70
2022-07-25T02:36:47.102Z,25.70
2022-07-25T02:39:14.107Z,25.70
2022-07-25T02:41:41.068Z,25.60
2022-07-25T02:44:08.182Z,25.60
2022-07-25T02:46:35.411Z,25.60
2022-07-25T02:49:02.383Z,25.60
2022-07-25T02:51:29.488Z,25.60
2022-07-25T02:53:58.084Z,25.60
2022-07-25T02:56:25.942Z,25.50
2022-07-25T02:58:53.812Z,25.50
2022-07-25T03:01:20.771Z,25.50
2022-07-25T03:03:47.783Z,25.50
2022-07-25T03:06:14.807Z,25.50
2022-07-25T03:08:41.684Z,25.50
2022-07-25T03:11:08.525Z,25.40
2022-07-25T03:13:35.414Z,25.40
2022-07-25T03:16:02.274Z,25.40
2022-07-25T03:18:29.194Z,25.40
2022-07-25T03:20:56.022Z,25.40
2022-07-25T03:23:25.043Z,25.40
2022-07-25T03:25:51.961Z,25.40
2022-07-25T03:28:18.916Z,25.40
2022-07-25T03:30:45.783Z,25.40
2022-07-25T03:33:12.638Z,25.30
2022-07-25T03:35:39.493Z,25.30
2022-07-25T03:38:06.391Z,25.30
2022-07-25T03:40:33.606Z,25.30
2022-07-25T03:43:00.499Z,25.30
2022-07-25T03:45:27.433Z,25.30
2022-07-25T03:47:54.993Z,25.30
2022-07-25T03:50:21.979Z,25.30
2022-07-25T03:52:48.853Z,25.30
2022-07-25T03:55:15.708Z,25.30
2022-07-25T03:57:42.617Z,25.30
2022-07-25T04:00:10.859Z,25.30
2022-07-25T04:02:38.273Z,25.30
2022-07-25T04:05:07.547Z,25.40
2022-07-25T04:07:35.034Z,25.40
2022-07-25T04:10:02.191Z,25.40
2022-07-25T04:12:29.131Z,25.40
2022-07-25T04:14:55.979Z,25.40
2022-07-25T04:17:23.073Z,25.40
2022-07-25T04:19:52.562Z,25.40
2022-07-25T04:22:19.634Z,25.40
2022-07-25T04:24:46.559Z,25.40
2022-07-25T04:27:13.702Z,25.40
2022-07-25T04:29:40.531Z,25.40
2022-07-25T04:32:07.678Z,25.40
2022-07-25T04:34:34.618Z,25.40
2022-07-25T04:37:01.531Z,25.40
2022-07-25T04:39:28.397Z,25.40
2022-07-25T04:41:55.326Z,25.40
2022-07-25T04:44:22.171Z,25.40
2022-07-25T04:46:49.075Z,25.40
2022-07-25T04:49:15.933Z,25.40
2022-07-25T04:51:42.803Z,25.40
2022-07-25T04:54:10.178Z,25.40
2022-07-25T04:56:37.291Z,25.40
2022-07-25T04:59:06.906Z,25.30
2022-07-25T05:01:34.846Z,25.40
2022-07-25T05:04:02.042Z,25.30
2022-07-25T05:06:29.188Z,25.40
2022-07-25T05:08:56.162Z,25.40
2022-07-25T05:11:23.052Z,25.40
2022-07-25T05:13:49.906Z,25.40
2022-07-25T05:16:16.948Z,25.40
2022-07-25T05:18:43.938Z,25.40
2022-07-25T05:21:12.072Z,25.30
2022-07-25T05:23:39.376Z,25.30
2022-07-25T05:26:06.416Z,25.30
2022-07-25T05:28:34.010Z,25.30
2022-07-25T05:31:01.109Z,25.30
2022-07-25T05:33:28.098Z,25.30
2022-07-25T05:35:55.137Z,25.30
2022-07-25T05:38:22.077Z,25.20
2022-07-25T05:40:49.325Z,25.30
2022-07-25T05:43:16.179Z,25.30
2022-07-25T05:45:44.157Z,25.30
2022-07-25T05:48:11.053Z,25.30
2022-07-25T05:50:37.969Z,25.40
2022-07-25T05:53:04.854Z,25.40
2022-07-25T05:55:31.673Z,25.40
2022-07-25T05:57:58.607Z,25.40
2022-07-25T06:00:26.069Z,25.40
2022-07-25T06:02:53.747Z,25.50
2022-07-25T06:05:20.697Z,25.50
2022-07-25T06:07:47.637Z,25.50
2022-07-25T06:10:14.551Z,25.40
2022-07-25T06:12:41.416Z,25.40
2022-07-25T06:15:12.629Z,25.40
2022-07-25T06:17:49.534Z,25.40
2022-07-25T06:20:16.404Z,25.40
2022-07-25T06:22:43.285Z,25.40
2022-07-25T06:25:10.308Z,25.40
2022-07-25T06:27:40.258Z,25.40
2022-07-25T06:30:18.687Z,25.40
2022-07-25T06:32:46.625Z,25.40
2022-07-25T06:35:13.474Z,25.40
2022-07-25T06:37:40.466Z,25.30
2022-07-25T06:40:08.305Z,25.30
2022-07-25T06:42:39.716Z,25.30
2022-07-25T06:45:09.637Z,25.30
2022-07-25T06:47:40.450Z,25.30
2022-07-25T06:50:11.134Z,25.30
2022-07-25T06:52:38.914Z,25.40
2022-07-25T06:55:07.781Z,25.30
2022-07-25T06:57:35.493Z,25.30
2022-07-25T07:00:06.691Z,25.30
2022-07-25T07:02:33.756Z,25.20
2022-07-25T07:05:00.615Z,25.30
2022-07-25T07:07:27.745Z,25.30
2022-07-25T07:09:54.584Z,25.30
2022-07-25T07:12:22.304Z,25.30
2022-07-25T07:14:49.350Z,25.40
2022-07-25T07:17:16.209Z,25.40
2022-07-25T07:19:45.826Z,25.40
2022-07-25T07:22:13.517Z,25.40
2022-07-25T07:24:44.181Z,25.40
2022-07-25T07:27:12.083Z,25.50
2022-07-25T07:29:39.009Z,25.50
2022-07-25T07:32:07.091Z,25.50
2022-07-25T07:34:34.109Z,25.60
2022-07-25T07:37:01.564Z,25.60
2022-07-25T07:39:28.509Z,25.60
2022-07-25T07:41:55.364Z,25.60
2022-07-25T07:44:22.189Z,25.60
2022-07-25T07:46:49.546Z,25.70
2022-07-25T07:49:16.561Z,25.70
2022-07-25T07:51:43.762Z,25.70
2022-07-25T07:54:29.145Z,25.70
2022-07-25T07:56:56.085Z,25.70
2022-07-25T07:59:22.971Z,25.70
2022-07-25T08:01:49.920Z,25.70
2022-07-25T08:04:17.041Z,25.70
2022-07-25T08:06:43.946Z,25.70
2022-07-25T08:09:10.827Z,25.70
2022-07-25T08:11:37.790Z,25.70
2022-07-25T08:14:07.206Z,25.70
2022-07-25T08:16:34.598Z,25.70
2022-07-25T08:19:01.758Z,25.70
2022-07-25T08:21:28.846Z,25.70
2022-07-25T08:23:55.838Z,25.70
2022-07-25T08:26:22.688Z,25.70
2022-07-25T08:28:55.664Z,25.70
2022-07-25T08:31:36.621Z,25.70
2022-07-25T08:34:04.108Z,25.60
2022-07-25T08:36:34.860Z,25.70
2022-07-25T08:39:02.144Z,25.70
2022-07-25T08:41:29.307Z,25.80
2022-07-25T08:43:56.217Z,25.70
2022-07-25T08:46:23.820Z,25.80
2022-07-25T08:48:52.246Z,25.70
2022-07-25T08:51:19.463Z,25.70
2022-07-25T08:53:48.605Z,25.70
2022-07-25T08:56:20.575Z,25.70
2022-07-25T08:58:48.726Z,25.70
2022-07-25T09:01:15.703Z,25.70
2022-07-25T09:03:43.926Z,25.80
2022-07-25T09:06:28.929Z,25.80
2022-07-25T09:08:58.226Z,25.90
2022-07-25T09:11:36.978Z,25.80
2022-07-25T09:14:05.846Z,25.80
2022-07-25T09:16:36.815Z,25.80
2022-07-25T09:19:12.886Z,25.80
2022-07-25T09:21:40.992Z,25.80
2022-07-25T09:24:18.866Z,25.80
2022-07-25T09:26:53.941Z,25.90
2022-07-25T09:29:25.174Z,25.90
2022-07-25T09:31:53.389Z,25.90
2022-07-25T09:34:38.103Z,25.90
2022-07-25T09:37:09.747Z,25.90
2022-07-25T09:39:43.506Z,25.80
2022-07-25T09:42:19.979Z,25.90
2022-07-25T09:45:13.841Z,25.90
2022-07-25T09:47:52.680Z,25.90
2022-07-25T09:50:21.479Z,25.90
2022-07-25T09:52:50.058Z,25.90
2022-07-25T09:55:16.982Z,25.90
2022-07-25T09:57:45.164Z,25.90
2022-07-25T10:00:19.000Z,26.00
2022-07-25T10:02:49.278Z,26.00
2022-07-25T10:05:19.563Z,26.00
2022-07-25T10:07:49.477Z,26.00
2022-07-25T10:10:32.767Z,26.00
2022-07-25T10:13:11.630Z,26.00
2022-07-25T10:15:48.123Z,26.00
2022-07-25T10:18:16.514Z,26.00
2022-07-25T10:20:44.846Z,26.00
2022-07-25T10:23:38.177Z,26.00
2022-07-25T10:26:16.115Z,26.00
2022-07-25T10:28:48.033Z,26.00
2022-07-25T10:31:27.879Z,25.90
2022-07-25T10:33:57.919Z,26.00
2022-07-25T10:36:30.142Z,25.90
2022-07-25T10:38:59.625Z,25.90
2022-07-25T10:41:30.048Z,26.00
2022-07-25T10:44:00.835Z,26.00
2022-07-25T10:46:30.919Z,26.00
2022-07-25T10:49:00.962Z,26.00
2022-07-25T10:51:31.222Z,26.00
2022-07-25T10:53:58.447Z,26.00
2022-07-25T10:56:28.856Z,26.00
2022-07-25T10:59:01.037Z,26.00
2022-07-25T11:01:30.649Z,26.00
2022-07-25T11:04:00.586Z,26.00
2022-07-25T11:06:38.865Z,26.00
2022-07-25T11:09:26.922Z,26.00
2022-07-25T11:11:57.835Z,25.90
2022-07-25T11:14:27.003Z,25.90
2022-07-25T11:16:56.040Z,25.90
2022-07-25T11:19:29.137Z,26.00
2022-07-25T11:22:01.088Z,26.00
2022-07-25T11:24:45.919Z,26.00
2022-07-25T11:27:26.717Z,25.90
2022-07-25T11:30:05.398Z,25.90
2022-07-25T11:32:54.303Z,25.90
2022-07-25T11:35:32.689Z,26.00
2022-07-25T11:38:03.909Z,26.00
2022-07-25T11:40:33.270Z,25.90
2022-07-25T11:43:00.392Z,25.90
2022-07-25T11:45:29.904Z,25.90
2022-07-25T11:48:08.529Z,26.00
2022-07-25T11:50:38.127Z,26.00
2022-07-25T11:53:10.577Z,26.00
2022-07-25T11:55:42.883Z,26.00
2022-07-25T11:58:11.594Z,26.00
2022-07-25T12:00:43.737Z,26.00
2022-07-25T12:03:20.485Z,26.10
2022-07-25T12:05:48.852Z,26.10
2022-07-25T12:08:18.208Z,26.00
2022-07-25T12:10:51.555Z,26.00
2022-07-25T12:13:26.914Z,26.00
2022-07-25T12:15:55.631Z,26.00
2022-07-25T12:18:22.581Z,26.00
2022-07-25T12:20:49.981Z,26.00
2022-07-25T12:23:16.954Z,26.00
2022-07-25T12:25:45.967Z,26.00
2022-07-25T12:28:13.915Z,26.00
2022-07-25T12:30:42.569Z,26.00
2022-07-25T12:33:09.819Z,26.00
2022-07-25T12:35:39.349Z,26.00
2022-07-25T12:38:06.512Z,26.00
2022-07-25T12:40:33.773Z,26.00
2022-07-25T12:43:01.164Z,26.00
2022-07-25T12:45:28.277Z,26.00
2022-07-25T12:47:55.862Z,25.90
2022-07-25T12:50:25.664Z,26.00
2022-07-25T12:52:52.950Z,25.90
2022-07-25T12:55:20.782Z,26.00
2022-07-25T12:57:47.835Z,26.00
2022-07-25T13:00:18.077Z,26.00
2022-07-25T13:02:45.102Z,26.00
2022-07-25T13:05:12.200Z,26.00
2022-07-25T13:07:39.105Z,26.00
2022-07-25T13:10:06.855Z,26.00
2022-07-25T13:12:34.029Z,26.00
2022-07-25T13:15:01.606Z,26.00
2022-07-25T13:17:29.589Z,26.00
2022-07-25T13:19:57.046Z,26.00
2022-07-25T13:22:24.891Z,26.00
2022-07-25T13:24:52.819Z,26.00
2022-07-25T13:27:23.338Z,26.00
2022-07-25T13:29:57.919Z,26.00
2022-07-25T13:32:26.710Z,25.90
2022-07-25T13:34:53.576Z,25.90
2022-07-25T13:37:20.677Z,25.80
2022-07-25T13:39:47.636Z,25.90
2022-07-25T13:42:14.709Z,25.90
2022-07-25T13:44:41.629Z,26.00
2022-07-25T13:47:08.583Z,25.90
2022-07-25T13:49:36.945Z,25.90
2022-07-25T13:52:04.395Z,25.90
2022-07-25T13:54:31.432Z,25.90
2022-07-25T13:56:58.984Z,25.90
2022-07-25T13:59:25.971Z,25.90
2022-07-25T14:01:54.265Z,25.90
2022-07-25T14:04:21.274Z,25.90
2022-07-25T14:06:52.029Z,25.80
2022-07-25T14:09:20.669Z,25.90
2022-07-25T14:11:48.148Z,25.90
2022-07-25T14:14:15.040Z,25.90
2022-07-25T14:16:42.007Z,25.90
2022-07-25T14:19:10.225Z,25.90
2022-07-25T14:21:37.976Z,26.00
2022-07-25T14:24:05.377Z,25.90
2022-07-25T14:26:34.431Z,25.90
2022-07-25T14:29:01.566Z,25.90
2022-07-25T14:31:28.595Z,26.00
2022-07-25T14:33:55.534Z,26.00
2022-07-25T14:36:22.457Z,26.00
2022-07-25T14:38:49.369Z,26.00
2022-07-25T14:41:16.881Z,26.00
2022-07-25T14:43:43.785Z,26.00
2022-07-25T14:46:10.876Z,26.00
2022-07-25T14:48:38.662Z,26.00
2022-07-25T14:51:06.749Z,26.00
2022-07-25T14:53:34.966Z,26.00
2022-07-25T14:56:06.228Z,26.00
2022-07-25T14:58:33.752Z,26.00
2022-07-25T15:01:01.235Z,26.00
2022-07-25T15:03:28.224Z,26.00
2022-07-25T15:05:55.112Z,26.00
2022-07-25T15:08:22.219Z,25.90
2022-07-25T15:10:49.386Z,26.00
2022-07-25T15:13:32.416Z,26.00
2022-07-25T15:16:00.829Z,26.00
2022-07-25T15:18:28.465Z,26.00
2022-07-25T15:20:55.588Z,26.00
2022-07-25T15:23:24.826Z,26.00
2022-07-25T15:26:08.667Z,26.00
2022-07-25T15:28:37.772Z,25.90
2022-07-25T15:31:06.244Z,25.90
2022-07-25T15:33:33.582Z,25.90
2022-07-25T15:36:00.812Z,25.90
2022-07-25T15:38:29.122Z,26.00
2022-07-25T15:40:56.327Z,25.90
2022-07-25T15:43:23.697Z,26.00
2022-07-25T15:45:50.551Z,26.00
2022-07-25T15:48:18.363Z,26.00
2022-07-25T15:50:48.165Z,26.00
2022-07-25T15:53:15.796Z,26.00
2022-07-25T15:55:43.420Z,26.00
2022-07-25T15:58:11.204Z,26.00
2022-07-25T16:00:39.725Z,25.90
2022-07-25T16:03:07.839Z,25.90
2022-07-25T16:05:35.327Z,25.90
2022-07-25T16:08:02.720Z,25.90
2022-07-25T16:10:31.692Z,25.90
2022-07-25T16:12:58.986Z,25.90
2022-07-25T16:15:26.346Z,25.80
2022-07-25T16:18:00.071Z,25.90
2022-07-25T16:20:31.211Z,25.90
2022-07-25T16:22:59.230Z,25.90
2022-07-25T16:25:27.917Z,25.90
2022-07-25T16:27:55.218Z,25.90
2022-07-25T16:30:22.371Z,25.90
2022-07-25T16:32:49.567Z,26.00
2022-07-25T16:35:16.690Z,26.00
2022-07-25T16:37:43.776Z,26.00
2022-07-25T16:40:10.949Z,25.90
2022-07-25T16:42:37.843Z,25.90
2022-07-25T16:45:05.650Z,25.90
2022-07-25T16:47:32.511Z,25.90
2022-07-25T16:49:59.372Z,25.80
2022-07-25T16:52:26.288Z,25.90
2022-07-25T16:54:53.216Z,25.90
2022-07-25T16:57:24.726Z,25.90
2022-07-25T16:59:53.617Z,25.90
2022-07-25T17:02:24.811Z,25.90
2022-07-25T17:04:53.351Z,25.90
2022-07-25T17:07:20.333Z,25.90
2022-07-25T17:09:47.563Z,25.90
2022-07-25T17:12:14.579Z,25.90
2022-07-25T17:14:41.452Z,25.90
2022-07-25T17:17:08.648Z,25.90
2022-07-25T17:19:39.811Z,25.90
2022-07-25T17:22:08.091Z,25.90
2022-07-25T17:24:36.064Z,25.90
2022-07-25T17:27:03.545Z,25.80
2022-07-25T17:29:30.554Z,25.90
2022-07-25T17:31:57.871Z,25.90
2022-07-25T17:34:26.725Z,25.90
2022-07-25T17:36:54.817Z,25.90
2022-07-25T17:39:21.703Z,25.90
2022-07-25T17:41:49.128Z,25.90
2022-07-25T17:44:16.756Z,25.90
2022-07-25T17:46:44.583Z,25.90
2022-07-25T17:49:11.763Z,25.90
2022-07-25T17:51:38.661Z,25.90
2022-07-25T17:54:05.963Z,25.90
2022-07-25T17:56:33.597Z,25.90
2022-07-25T17:59:00.716Z,25.90
2022-07-25T18:01:27.655Z,25.80
2022-07-25T18:03:54.802Z,25.80
2022-07-25T18:06:25.109Z,25.70
2022-07-25T18:08:56.522Z,25.70
2022-07-25T18:11:23.467Z,25.70
2022-07-25T18:13:50.451Z,25.60
2022-07-25T18:16:17.714Z,25.60
2022-07-25T18:18:44.739Z,25.60
2022-07-25T18:21:11.586Z,25.60
2022-07-25T18:23:38.571Z,25.50
2022-07-25T18:26:05.467Z,25.50
2022-07-25T18:28:32.399Z,25.40
2022-07-25T18:30:59.353Z,25.40
2022-07-25T18:33:26.487Z,25.50
2022-07-25T18:35:53.472Z,25.50
2022-07-25T18:38:20.511Z,25.50
2022-07-25T18:40:47.464Z,25.50
2022-07-25T18:43:14.545Z,25.50
2022-07-25T18:45:42.281Z,25.50
2022-07-25T18:48:09.707Z,25.50
2022-07-25T18:50:36.617Z,25.60
2022-07-25T18:53:03.700Z,25.50
2022-07-25T18:55:30.718Z,25.50
2022-07-25T18:57:57.706Z,25.50
2022-07-25T19:00:24.887Z,25.50
2022-07-25T19:02:51.821Z,25.50
2022-07-25T19:05:18.812Z,25.50
2022-07-25T19:07:45.832Z,25.50
2022-07-25T19:10:12.909Z,25.50
2022-07-25T19:12:40.250Z,25.50
2022-07-25T19:15:07.721Z,25.50
2022-07-25T19:17:37.080Z,25.50
2022-07-25T19:20:05.304Z,25.50
2022-07-25T19:22:32.288Z,25.40
2022-07-25T19:25:01.519Z,25.40
2022-07-25T19:27:28.927Z,25.30
2022-07-25T19:29:55.879Z,25.30
2022-07-25T19:32:26.003Z,25.40
2022-07-25T19:34:53.582Z,25.40
2022-07-25T19:37:20.471Z,25.30
2022-07-25T19:39:48.996Z,25.30
2022-07-25T19:42:16.115Z,25.30
2022-07-25T19:44:43.167Z,25.30
2022-07-25T19:47:12.051Z,25.30
2022-07-25T19:49:40.167Z,25.30
2022-07-25T19:52:07.675Z,25.30
2022-07-25T19:54:34.628Z,25.30
2022-07-25T19:57:01.541Z,25.20
2022-07-25T19:59:28.528Z,25.20
2022-07-25T20:01:55.463Z,25.20
2022-07-25T20:04:22.753Z,25.20
2022-07-25T20:06:50.819Z,25.20
2022-07-25T20:09:18.003Z,25.20
2022-07-25T20:11:45.396Z,25.20
2022-07-25T20:14:12.380Z,25.20
2022-07-25T20:16:40.029Z,25.20
2022-07-25T20:19:09.895Z,25.20
2022-07-25T20:21:38.046Z,25.20
2022-07-25T20:24:05.215Z,25.20
2022-07-25T20:26:32.136Z,25.20
2022-07-25T20:28:59.132Z,25.20
2022-07-25T20:31:26.301Z,25.20
2022-07-25T20:33:53.504Z,25.20
2022-07-25T20:36:20.796Z,25.30
2022-07-25T20:38:47.743Z,25.30
2022-07-25T20:41:15.500Z,25.30
2022-07-25T20:43:42.546Z,25.30
2022-07-25T20:46:09.659Z,25.40
2022-07-25T20:48:36.768Z,25.40
2022-07-25T20:51:04.069Z,25.40
2022-07-25T20:53:31.023Z,25.40
2022-07-25T20:55:58.414Z,25.40
2022-07-25T20:58:25.421Z,25.40
2022-07-25T21:00:52.391Z,25.40
2022-07-25T21:03:19.527Z,25.50
2022-07-25T21:05:46.380Z,25.40
2022-07-25T21:08:13.307Z,25.40
2022-07-25T21:10:40.273Z,25.40
2022-07-25T21:13:07.154Z,25.40
2022-07-25T21:15:35.915Z,25.40
2022-07-25T21:18:02.914Z,25.40
2022-07-25T21:20:29.941Z,25.40
2022-07-25T21:22:56.898Z,25.40
2022-07-25T21:25:23.897Z,25.40
2022-07-25T21:27:50.780Z,25.40
2022-07-25T21:30:17.840Z,25.40
2022-07-25T21:32:45.036Z,25.30
2022-07-25T21:35:12.338Z,25.40
2022-07-25T21:37:40.000Z,25.30
2022-07-25T21:40:07.579Z,25.30
2022-07-25T21:42:35.851Z,25.30
2022-07-25T21:45:02.990Z,25.30
2022-07-25T21:47:29.831Z,25.30
2022-07-25T21:50:19.229Z,25.30
2022-07-25T21:52:52.955Z,25.20
2022-07-25T21:55:21.272Z,25.20
2022-07-25T21:57:49.272Z,25.20
2022-07-25T22:00:16.302Z,25.20
2022-07-25T22:02:44.739Z,25.20
2022-07-25T22:05:12.475Z,25.20
2022-07-25T22:07:40.250Z,25.20
2022-07-25T22:10:08.629Z,25.20
2022-07-25T22:12:36.339Z,25.20
2022-07-25T22:15:04.345Z,25.20
2022-07-25T22:17:49.330Z,25.20
2022-07-25T22:20:20.867Z,25.10
2022-07-25T22:22:48.697Z,25.10
2022-07-25T22:25:16.288Z,25.10
2022-07-25T22:27:43.909Z,25.10
2022-07-25T22:30:16.394Z,25.10
2022-07-25T22:32:46.588Z,25.10
2022-07-25T22:35:13.587Z,25.10
2022-07-25T22:37:40.567Z,25.00
2022-07-25T22:40:07.864Z,25.00
2022-07-25T22:42:34.840Z,25.00
2022-07-25T22:45:01.780Z,25.00
2022-07-25T22:47:28.630Z,25.00
2022-07-25T22:49:55.623Z,25.00
2022-07-25T22:52:22.529Z,25.00
2022-07-25T22:54:49.388Z,24.90
2022-07-25T22:57:16.608Z,24.90
2022-07-25T22:59:43.472Z,24.90
2022-07-25T23:02:10.398Z,24.90
2022-07-25T23:04:38.427Z,24.90
2022-07-25T23:07:05.455Z,24.90
2022-07-25T23:09:36.469Z,24.90
2022-07-25T23:12:05.104Z,24.90
2022-07-25T23:14:32.232Z,24.90
2022-07-25T23:17:17.280Z,24.90
2022-07-25T23:19:45.185Z,24.80
2022-07-25T23:22:12.164Z,24.80
2022-07-25T23:24:39.302Z,24.80
2022-07-25T23:27:07.037Z,24.80
2022-07-25T23:29:34.099Z,24.80
2022-07-25T23:32:01.439Z,24.80
2022-07-25T23:34:28.531Z,24.80
2022-07-25T23:36:55.391Z,24.80
2022-07-25T23:39:22.362Z,24.80
2022-07-25T23:41:49.352Z,24.80
2022-07-25T23:44:16.447Z,24.70
2022-07-25T23:46:43.880Z,24.70
2022-07-25T23:49:12.813Z,24.70
2022-07-25T23:51:40.100Z,24.70
2022-07-25T23:54:07.158Z,24.70
2022-07-25T23:56:34.036Z,24.70
2022-07-25T23:59:00.974Z,24.70
